createdAt,value
2022-11-29T05:03:16.446Z,101090.13
2022-11-29T05:06:29.814Z,101094.37
2022-11-29T05:09:47.485Z,101095.94
2022-11-29T05:13:11.401Z,101103.00
2022-11-29T05:16:45.674Z,101107.56
2022-11-29T05:20:01.556Z,101109.44
2022-11-29T05:23:16.173Z,101099.31
2022-11-29T05:26:42.986Z,101104.34
2022-11-29T05:30:02.622Z,101104.41
2022-11-29T05:33:15.575Z,101105.38
2022-11-29T05:36:23.771Z,101109.62
2022-11-29T05:40:09.682Z,101114.72
2022-11-29T05:43:57.090Z,101110.66
2022-11-29T05:47:02.532Z,101116.34
2022-11-29T05:50:38.504Z,101116.59
2022-11-29T05:53:57.460Z,101110.47
2022-11-29T05:57:21.651Z,101119.91
2022-11-29T06:00:29.107Z,101110.28
2022-11-29T06:03:46.921Z,101113.78
2022-11-29T06:07:00.385Z,101119.38
2022-11-29T06:10:11.118Z,101116.72
2022-11-29T06:13:36.126Z,101124.47
2022-11-29T06:16:53.927Z,101126.09
2022-11-29T06:20:23.506Z,101132.69
2022-11-29T06:23:32.621Z,101135.72
2022-11-29T06:26:44.954Z,101136.38
2022-11-29T06:30:10.363Z,101131.41
2022-11-29T06:33:37.594Z,101132.06
2022-11-29T06:36:48.555Z,101132.72
2022-11-29T06:39:51.508Z,101140.84
2022-11-29T06:42:54.287Z,101146.53
2022-11-29T06:46:03.475Z,101152.94
2022-11-29T06:49:12.977Z,101142.84
2022-11-29T06:52:34.117Z,101143.31
2022-11-29T06:55:36.773Z,101146.22
2022-11-29T06:58:48.174Z,101142.47
2022-11-29T07:01:59.466Z,101146.91
2022-11-29T07:05:24.193Z,101149.06
2022-11-29T07:08:27.386Z,101151.53
2022-11-29T07:11:30.506Z,101155.97
2022-11-29T07:14:33.553Z,101153.53
2022-11-29T07:18:01.211Z,101154.56
2022-11-29T07:21:39.489Z,101153.62
2022-11-29T07:24:48.158Z,101157.59
2022-11-29T07:28:13.031Z,101162.13
2022-11-29T07:31:38.579Z,101158.06
2022-11-29T07:35:16.309Z,101154.28
2022-11-29T07:38:30.204Z,101153.25
2022-11-29T07:41:40.946Z,101154.09
2022-11-29T07:45:14.608Z,101162.50
2022-11-29T07:48:18.179Z,101166.50
2022-11-29T07:51:21.135Z,101165.59
2022-11-29T07:54:24.392Z,101167.72
2022-11-29T07:57:26.916Z,101161.94
2022-11-29T08:00:29.691Z,101162.97
2022-11-29T08:03:33.896Z,101167.41
2022-11-29T08:06:37.243Z,101170.00
2022-11-29T08:09:40.900Z,101174.53
2022-11-29T08:12:47.510Z,101173.16
2022-11-29T08:15:50.259Z,101171.72
2022-11-29T08:18:53.063Z,101167.31
2022-11-29T08:21:55.845Z,101161.81
2022-11-29T08:24:59.938Z,101162.91
2022-11-29T08:28:03.738Z,101166.59
2022-11-29T08:31:09.592Z,101161.25
2022-11-29T08:34:12.678Z,101163.00
2022-11-29T08:37:15.277Z,101169.25
2022-11-29T08:40:18.565Z,101167.03
2022-11-29T08:43:21.061Z,101169.81
2022-11-29T08:46:43.829Z,101175.31
2022-11-29T08:50:01.574Z,101178.94
2022-11-29T08:53:23.162Z,101176.09
2022-11-29T08:57:16.598Z,101170.09
2022-11-29T08:59:48.574Z,101173.63
2022-11-29T09:02:51.435Z,101162.63
2022-11-29T09:05:54.363Z,101171.69
2022-11-29T09:08:58.021Z,101169.37
2022-11-29T09:12:00.774Z,101172.69
2022-11-29T09:15:09.293Z,101173.22
2022-11-29T09:18:12.405Z,101163.06
2022-11-29T09:21:16.259Z,101160.91
2022-11-29T09:24:20.316Z,101163.63
2022-11-29T09:27:22.882Z,101151.66
2022-11-29T09:30:26.554Z,101158.78
2022-11-29T09:33:29.222Z,101150.56
2022-11-29T09:36:32.327Z,101146.91
2022-11-29T09:39:35.062Z,101155.87
2022-11-29T09:43:00.790Z,101160.88
2022-11-29T09:46:18.029Z,101154.31
2022-11-29T09:49:23.735Z,101157.19
2022-11-29T09:52:52.608Z,101153.69
2022-11-29T09:56:16.678Z,101144.47
2022-11-29T09:59:29.042Z,101153.06
2022-11-29T10:02:39.623Z,101144.66
2022-11-29T10:05:50.005Z,101141.25
2022-11-29T10:09:17.140Z,101144.12
2022-11-29T10:12:36.120Z,101141.16
2022-11-29T10:15:43.401Z,101129.06
2022-11-29T10:19:15.729Z,101130.22
2022-11-29T10:22:25.669Z,101121.09
2022-11-29T10:25:58.155Z,101115.75
2022-11-29T10:29:19.635Z,101120.44
2022-11-29T10:32:25.582Z,101123.19
2022-11-29T10:35:29.521Z,101109.69
2022-11-29T10:38:32.628Z,101124.69
2022-11-29T10:41:35.744Z,101113.94
2022-11-29T10:44:38.545Z,101112.91
2022-11-29T10:47:41.149Z,101101.56
2022-11-29T10:50:45.741Z,101095.50
2022-11-29T10:53:52.229Z,101099.53
2022-11-29T10:56:57.584Z,101096.50
2022-11-29T11:00:11.432Z,101093.25
2022-11-29T11:03:43.284Z,101095.09
2022-11-29T11:06:56.347Z,101101.09
2022-11-29T11:09:59.709Z,101096.88
2022-11-29T11:13:18.750Z,101100.12
2022-11-29T11:16:26.622Z,101099.09
2022-11-29T11:19:30.596Z,101096.44
2022-11-29T11:22:35.452Z,101100.06
2022-11-29T11:25:40.346Z,101107.81
2022-11-29T11:29:02.660Z,101101.22
2022-11-29T11:32:15.293Z,101097.81
2022-11-29T11:35:24.327Z,101100.78
2022-11-29T11:38:27.040Z,101093.66
2022-11-29T11:41:50.920Z,101092.25
2022-11-29T11:44:53.940Z,101103.09
2022-11-29T11:48:11.595Z,101100.75
2022-11-29T11:51:23.392Z,101099.25
2022-11-29T11:54:27.663Z,101100.12
2022-11-29T11:57:31.468Z,101104.50
2022-11-29T12:01:03.470Z,101098.97
2022-11-29T12:04:27.371Z,101093.56
2022-11-29T12:08:06.719Z,101089.94
2022-11-29T12:11:08.150Z,101094.41
2022-11-29T12:14:36.593Z,101099.94
2022-11-29T12:18:01.318Z,101091.03
2022-11-29T12:21:13.154Z,101097.81
2022-11-29T12:24:27.473Z,101091.03
2022-11-29T12:27:31.179Z,101096.34
2022-11-29T12:30:34.554Z,101091.66
2022-11-29T12:34:22.419Z,101088.59
2022-11-29T12:38:03.563Z,101084.63
2022-11-29T12:41:24.896Z,101081.88
2022-11-29T12:45:10.001Z,101074.47
2022-11-29T12:48:30.826Z,101080.50
2022-11-29T12:51:57.958Z,101081.34
2022-11-29T12:55:21.933Z,101084.31
2022-11-29T12:59:00.924Z,101074.94
2022-11-29T13:02:29.973Z,101079.41
2022-11-29T13:05:51.027Z,101078.66
2022-11-29T13:09:21.820Z,101067.28
2022-11-29T13:12:42.695Z,101069.66
2022-11-29T13:16:08.656Z,101074.59
2022-11-29T13:19:30.640Z,101068.34
2022-11-29T13:22:56.181Z,101065.53
2022-11-29T13:26:01.794Z,101067.75
2022-11-29T13:29:06.473Z,101075.50
2022-11-29T13:32:31.423Z,101073.31
2022-11-29T13:35:50.416Z,101077.19
2022-11-29T13:39:25.960Z,101074.66
2022-11-29T13:42:45.335Z,101068.94
2022-11-29T13:45:58.684Z,101066.59
2022-11-29T13:49:01.953Z,101072.25
2022-11-29T13:52:06.452Z,101071.31
2022-11-29T13:55:11.827Z,101071.31
2022-11-29T13:58:17.787Z,101068.13
2022-11-29T14:01:22.488Z,101072.47
2022-11-29T14:04:45.971Z,101078.31
2022-11-29T14:08:26.638Z,101076.94
2022-11-29T14:12:01.803Z,101069.72
2022-11-29T14:15:28.343Z,101076.41
2022-11-29T14:18:37.424Z,101072.81
2022-11-29T14:21:58.803Z,101077.50
2022-11-29T14:25:49.163Z,101076.97
2022-11-29T14:28:43.619Z,101071.22
2022-11-29T14:31:49.558Z,101080.25
2022-11-29T14:35:10.246Z,101067.09
2022-11-29T14:38:31.140Z,101067.59
2022-11-29T14:41:52.899Z,101071.75
2022-11-29T14:44:59.939Z,101072.81
2022-11-29T14:48:02.862Z,101076.97
2022-11-29T14:51:14.978Z,101080.25
2022-11-29T14:54:20.064Z,101072.94
2022-11-29T14:57:52.205Z,101077.91
2022-11-29T15:01:03.852Z,101067.41
2022-11-29T15:04:10.145Z,101067.63
2022-11-29T15:07:19.707Z,101074.84
2022-11-29T15:10:27.296Z,101078.22
2022-11-29T15:13:33.958Z,101070.50
2022-11-29T15:16:55.207Z,101081.56
2022-11-29T15:20:19.711Z,101083.38
2022-11-29T15:23:22.544Z,101080.94
2022-11-29T15:26:25.137Z,101076.12
2022-11-29T15:29:29.910Z,101076.88
2022-11-29T15:32:32.900Z,101084.00
2022-11-29T15:35:36.687Z,101078.47
2022-11-29T15:38:48.045Z,101076.56
2022-11-29T15:41:50.960Z,101079.56
2022-11-29T15:44:53.626Z,101080.72
2022-11-29T15:48:14.056Z,101079.44
2022-11-29T15:51:31.031Z,101079.94
2022-11-29T15:54:39.762Z,101084.09
2022-11-29T15:57:46.900Z,101080.81
2022-11-29T16:00:51.925Z,101084.00
2022-11-29T16:03:56.844Z,101082.09
2022-11-29T16:06:59.459Z,101072.62
2022-11-29T16:10:07.897Z,101074.53
2022-11-29T16:13:25.457Z,101073.78
2022-11-29T16:16:32.238Z,101096.62
2022-11-29T16:19:37.768Z,101090.47
2022-11-29T16:22:40.638Z,101089.84
2022-11-29T16:25:55.807Z,101087.41
2022-11-29T16:28:58.611Z,101082.94
2022-11-29T16:32:13.389Z,101088.37
2022-11-29T16:35:22.103Z,101097.94
2022-11-29T16:38:24.941Z,101096.44
2022-11-29T16:41:33.992Z,101091.84
2022-11-29T16:44:39.291Z,101099.72
2022-11-29T16:47:58.863Z,101104.84
2022-11-29T16:51:13.729Z,101101.41
2022-11-29T16:54:23.141Z,101103.88
2022-11-29T16:57:28.245Z,101104.31
2022-11-29T17:00:33.358Z,101105.47
